Urb Garcia Ponce, Puerto Rico
Current Conditions -  °F | °C
As of 6:53 PM on Saturday 25 Oct 2014 (Local Time) from TJNR Reporting Station
Clear Clear  
Wind Chill: 83°   Ceiling: Unl
Heat Index: 90°   Visibility: 10mi
Dew Point: 75°   Wind: 6mph
Humidity: 77%   Direction: 200°SSW
Pressure: 29.89"   Gusts: NA
Location:  18.3304°N, 65.6573°W
Report Text: TJNR 252253Z AUTO 20005KT 10SM CLR 28/24 A2989 RMK AO2 SLP120 T02830239 $
Loading
Personal Weather Stations






























Interactive Weather Map
Tropical Storm Tracking
New forecast layout! Learn more

10-Day Weather Forecast

Advertisements
Track Severe Weather on mobile